Impacts METAR Board INFO
IDs:

KSEA - Seattle-Tacoma Intl, WA, US

Updated at: 1916 UTC 19 Jan 2018
Potential Impact None Slight Moderate High
Time19/07Z 19/08Z 19/09Z 19/10Z 19/11Z 19/12Z 19/13Z 19/14Z 19/15Z 19/16Z 19/17Z 19/18Z 19/19Z
VIS10 10 10 10 10 10 10 10 10 10 10 10 10
CIG90 70 85 -- -- -- 75 46 42 50 55 55 48
CoverBKNBKNBKNSCTSCTSCTBKNOVCOVCOVCBKNOVCOVC
FltCatVFRVFRVFRVFRVFRVFRVFRVFRVFRVFRVFRVFRVFR
WX--------------------------
WDir170180180160120150140150150180190180180
WSpd8 8 7 8 6 6 7 8 6 8 6 8 12
WGst-- -- -- -- -- -- -- -- -- -- -- -- --
Raw hourly METARs
KSEA 190653Z 17008KT 10SM FEW050 SCT065 BKN090 05/02 A2979 RMK AO2 SLP097 T00500022
KSEA 190753Z 18008KT 10SM BKN070 05/02 A2981 RMK AO2 SLP103 T00500022 401110039
KSEA 190853Z 18007KT 10SM BKN085 05/02 A2982 RMK AO2 SLP105 T00500017 53006
KSEA 190953Z 16008KT 10SM SCT085 04/01 A2982 RMK AO2 SLP105 T00390011
KSEA 191053Z 12006KT 10SM SCT085 03/01 A2982 RMK AO2 SLP107 T00330011
KSEA 191153Z 15006KT 10SM SCT070 04/02 A2983 RMK AO2 SLP109 70020 T00390017 10050 20033 53003
KSEA 191253Z 14007KT 10SM FEW050 SCT060 BKN075 04/02 A2984 RMK AO2 SLP111 T00440017
KSEA 191353Z 15008KT 10SM BKN046 OVC055 05/02 A2984 RMK AO2 SLP112 T00500022
KSEA 191453Z 15006KT 10SM BKN042 OVC060 05/02 A2985 RMK AO2 RAB38E51 SLP115 P0000 60000 T00500017 53006
KSEA 191553Z 18008KT 10SM BKN050 BKN070 OVC200 05/02 A2986 RMK AO2 RAB14E27B44E50 SLP119 P0000 T00500022
KSEA 191653Z 19006KT 10SM FEW035 BKN055 BKN075 BKN200 06/02 A2987 RMK AO2 RAB22E50 SLP124 P0000 T00560022
KSEA 191753Z 18008KT 10SM FEW035 BKN055 OVC200 07/03 A2989 RMK AO2 RAB26E41 SLP131 P0001 60001 T00670028 10067 20039 53015
KSEA 191853Z 18012KT 10SM FEW035 BKN048 OVC060 07/03 A2990 RMK AO2 RAB29E49 SLP133 P0000 T00720028